createdAt,value
2019-05-17T00:01:16.655Z,87.00
2019-05-17T00:03:47.223Z,86.90
2019-05-17T00:06:17.776Z,87.10
2019-05-17T00:08:48.407Z,86.90
2019-05-17T00:11:20.214Z,86.90
2019-05-17T00:13:50.765Z,87.10
2019-05-17T00:16:21.659Z,86.50
2019-05-17T00:18:52.335Z,86.70
2019-05-17T00:21:22.887Z,87.20
2019-05-17T00:23:53.848Z,87.20
2019-05-17T00:26:26.797Z,87.20
2019-05-17T00:28:56.649Z,87.50
2019-05-17T00:31:27.144Z,88.20
2019-05-17T00:33:57.767Z,88.90
2019-05-17T00:36:28.540Z,89.80
2019-05-17T00:38:59.193Z,90.60
2019-05-17T00:41:29.846Z,90.90
2019-05-17T00:44:00.455Z,91.40
2019-05-17T00:46:34.398Z,92.20
2019-05-17T00:49:06.494Z,92.40
2019-05-17T00:51:37.226Z,92.90
2019-05-17T00:54:08.163Z,93.30
2019-05-17T00:56:38.896Z,93.20
2019-05-17T00:59:10.567Z,93.40
2019-05-17T01:01:41.082Z,94.20
2019-05-17T01:04:11.676Z,94.40
2019-05-17T01:06:44.055Z,94.50
2019-05-17T01:09:17.030Z,94.50
2019-05-17T01:11:47.522Z,94.50
2019-05-17T01:14:19.133Z,94.00
2019-05-17T01:16:49.632Z,93.70
2019-05-17T01:19:21.209Z,93.40
2019-05-17T01:21:51.728Z,93.20
2019-05-17T01:24:22.293Z,93.00
2019-05-17T01:26:52.961Z,92.90
2019-05-17T01:29:23.536Z,92.70
2019-05-17T01:31:54.133Z,92.50
2019-05-17T01:34:27.065Z,92.30
2019-05-17T01:36:57.254Z,92.20
2019-05-17T01:39:27.751Z,91.90
2019-05-17T01:41:58.322Z,91.80
2019-05-17T01:44:28.971Z,91.70
2019-05-17T01:46:59.579Z,91.60
2019-05-17T01:49:30.052Z,91.40
2019-05-17T01:52:00.690Z,91.40
2019-05-17T01:54:31.351Z,91.20
2019-05-17T01:57:01.925Z,91.10
2019-05-17T01:59:32.541Z,91.00
2019-05-17T02:02:07.166Z,90.90
2019-05-17T02:04:38.510Z,90.90
2019-05-17T02:07:09.246Z,90.70
2019-05-17T02:09:41.775Z,90.50
2019-05-17T02:12:12.645Z,90.10
2019-05-17T02:14:43.223Z,89.50
2019-05-17T02:17:13.866Z,89.00
2019-05-17T02:19:46.440Z,88.20
2019-05-17T02:22:16.835Z,87.60
2019-05-17T02:24:48.472Z,86.90
2019-05-17T02:27:21.403Z,86.30
2019-05-17T02:29:52.000Z,85.70
2019-05-17T02:32:23.547Z,85.80
2019-05-17T02:34:54.179Z,85.40
2019-05-17T02:37:24.737Z,85.40
2019-05-17T02:40:02.713Z,85.00
2019-05-17T02:42:27.894Z,84.40
2019-05-17T02:44:58.699Z,84.50
2019-05-17T02:47:29.304Z,84.00
2019-05-17T02:50:00.045Z,83.50
2019-05-17T02:52:32.920Z,83.40
2019-05-17T02:55:04.100Z,83.30
2019-05-17T02:57:34.927Z,83.40
2019-05-17T03:00:05.905Z,83.30
2019-05-17T03:02:36.588Z,83.00
2019-05-17T03:05:08.535Z,82.90
2019-05-17T03:07:39.366Z,83.20
2019-05-17T03:10:18.317Z,83.40
2019-05-17T03:12:44.535Z,83.90
2019-05-17T03:15:14.374Z,83.80
2019-05-17T03:17:44.941Z,83.80
2019-05-17T03:20:15.406Z,84.30
2019-05-17T03:22:45.917Z,84.50
2019-05-17T03:25:16.568Z,84.50
2019-05-17T03:27:47.093Z,84.90
2019-05-17T03:30:18.833Z,85.00
2019-05-17T03:32:55.438Z,85.20
2019-05-17T03:35:26.400Z,85.40
2019-05-17T03:37:54.573Z,86.00
2019-05-17T03:40:56.480Z,86.70
2019-05-17T03:42:57.436Z,87.50
2019-05-17T03:45:28.026Z,89.80
2019-05-17T03:47:58.629Z,90.70
2019-05-17T03:50:29.417Z,91.40
2019-05-17T03:53:02.343Z,91.70
2019-05-17T03:55:33.233Z,92.20
2019-05-17T03:58:04.564Z,91.90
2019-05-17T04:00:35.717Z,91.90
2019-05-17T04:03:06.247Z,92.00
2019-05-17T04:05:36.756Z,92.00
2019-05-17T04:08:07.620Z,92.00
2019-05-17T04:10:38.096Z,92.00
2019-05-17T04:13:08.668Z,92.10
2019-05-17T04:15:39.177Z,92.10
2019-05-17T04:18:12.791Z,92.10
2019-05-17T04:20:43.320Z,92.40
2019-05-17T04:23:14.087Z,91.80
2019-05-17T04:25:44.615Z,91.60
2019-05-17T04:28:15.117Z,91.80
2019-05-17T04:30:45.599Z,91.30
2019-05-17T04:33:16.108Z,91.00
2019-05-17T04:35:46.671Z,91.00
2019-05-17T04:38:17.296Z,90.80
2019-05-17T04:40:47.777Z,90.80
2019-05-17T04:43:18.329Z,90.60
2019-05-17T04:45:48.967Z,90.90
2019-05-17T04:48:19.612Z,90.40
2019-05-17T04:50:53.325Z,90.70
2019-05-17T04:53:23.388Z,90.30
2019-05-17T04:55:54.315Z,90.40
2019-05-17T04:58:25.015Z,90.30
2019-05-17T05:00:55.681Z,90.20
2019-05-17T05:03:26.312Z,90.50
2019-05-17T05:05:56.786Z,90.10
2019-05-17T05:08:27.299Z,90.10
2019-05-17T05:10:57.886Z,90.10
2019-05-17T05:13:28.460Z,90.50
2019-05-17T05:15:59.421Z,89.90
2019-05-17T05:18:32.483Z,89.50
2019-05-17T05:21:03.802Z,89.30
2019-05-17T05:23:35.674Z,88.90
2019-05-17T05:26:06.434Z,88.50
2019-05-17T05:28:37.166Z,88.30
2019-05-17T05:31:07.730Z,88.30
2019-05-17T05:33:38.256Z,88.10
2019-05-17T05:36:08.762Z,88.40
2019-05-17T05:38:39.319Z,88.50
2019-05-17T05:41:12.083Z,88.60
2019-05-17T05:43:42.268Z,89.30
2019-05-17T05:46:12.886Z,89.90
2019-05-17T05:48:43.455Z,90.00
2019-05-17T05:51:13.953Z,90.30
2019-05-17T05:53:44.432Z,90.30
2019-05-17T05:56:14.887Z,90.50
2019-05-17T05:58:45.384Z,90.70
2019-05-17T06:01:16.061Z,90.80
2019-05-17T06:03:46.579Z,91.10
2019-05-17T06:06:17.165Z,91.00
2019-05-17T06:08:47.797Z,91.00
2019-05-17T06:11:18.322Z,91.10
2019-05-17T06:13:48.890Z,91.10
2019-05-17T06:16:19.415Z,91.10
2019-05-17T06:18:51.632Z,91.20
2019-05-17T06:21:22.682Z,91.30
2019-05-17T06:23:53.341Z,91.40
2019-05-17T06:26:23.905Z,91.40
2019-05-17T06:28:54.323Z,91.20
2019-05-17T06:31:25.810Z,91.30
2019-05-17T06:33:56.385Z,91.30
2019-05-17T06:36:27.019Z,91.30
2019-05-17T06:38:57.525Z,91.20
2019-05-17T06:41:28.038Z,91.30
2019-05-17T06:43:58.683Z,91.00
2019-05-17T06:46:29.251Z,90.90
2019-05-17T06:48:59.786Z,90.90
2019-05-17T06:51:31.604Z,90.70
2019-05-17T06:54:02.583Z,90.60
2019-05-17T06:56:33.243Z,90.60
2019-05-17T06:59:03.753Z,90.70
2019-05-17T07:01:34.682Z,90.40
2019-05-17T07:04:05.403Z,90.50
2019-05-17T07:06:36.834Z,90.40
2019-05-17T07:09:09.878Z,90.10
2019-05-17T07:11:40.063Z,89.90
2019-05-17T07:14:10.892Z,89.20
2019-05-17T07:16:41.655Z,89.20
2019-05-17T07:19:12.265Z,89.20
2019-05-17T07:21:42.902Z,89.20
2019-05-17T07:24:13.621Z,89.40
2019-05-17T07:26:44.442Z,90.20
2019-05-17T07:29:15.043Z,90.60
2019-05-17T07:31:45.749Z,90.90
2019-05-17T07:34:16.407Z,91.00
2019-05-17T07:36:47.271Z,90.90
2019-05-17T07:39:20.310Z,90.50
2019-05-17T07:41:50.211Z,90.10
2019-05-17T07:44:20.996Z,90.90
2019-05-17T07:46:51.946Z,91.00
2019-05-17T07:49:22.549Z,91.10
2019-05-17T07:51:53.354Z,91.00
2019-05-17T07:54:24.065Z,91.20
2019-05-17T07:56:54.793Z,91.10
2019-05-17T07:59:25.357Z,90.90
2019-05-17T08:01:56.045Z,91.00
2019-05-17T08:04:26.585Z,91.20
2019-05-17T08:06:59.809Z,90.50
2019-05-17T08:09:30.735Z,90.40
2019-05-17T08:12:01.836Z,90.10
2019-05-17T08:14:33.554Z,90.00
2019-05-17T08:17:04.285Z,89.50
2019-05-17T08:19:34.855Z,89.30
2019-05-17T08:22:05.473Z,88.20
2019-05-17T08:24:36.017Z,87.90
2019-05-17T08:27:06.789Z,86.70
2019-05-17T08:29:37.311Z,85.90
2019-05-17T08:32:09.631Z,84.40
2019-05-17T08:34:40.273Z,84.50
2019-05-17T08:37:10.795Z,83.00
2019-05-17T08:39:41.351Z,82.00
2019-05-17T08:42:12.419Z,81.60
2019-05-17T08:44:42.913Z,82.30
2019-05-17T08:47:13.419Z,80.80
2019-05-17T08:49:43.922Z,80.80
2019-05-17T08:52:14.404Z,80.40
2019-05-17T08:54:46.142Z,81.40
2019-05-17T08:57:16.677Z,81.00
2019-05-17T08:59:49.584Z,80.90
2019-05-17T09:02:19.983Z,81.00
2019-05-17T09:04:50.634Z,80.90
2019-05-17T09:07:21.120Z,80.70
2019-05-17T09:09:51.608Z,80.30
2019-05-17T09:12:22.156Z,80.70
2019-05-17T09:14:52.625Z,80.00
2019-05-17T09:17:23.215Z,79.70
2019-05-17T09:19:54.454Z,78.30
2019-05-17T09:22:26.275Z,78.00
2019-05-17T09:24:56.854Z,78.50
2019-05-17T09:27:30.013Z,79.50
2019-05-17T09:30:01.345Z,80.50
2019-05-17T09:32:32.707Z,80.40
2019-05-17T09:35:03.177Z,79.40
2019-05-17T09:37:33.955Z,79.70
2019-05-17T09:40:04.692Z,80.30
2019-05-17T09:42:35.149Z,80.50
2019-05-17T09:45:05.940Z,81.60
2019-05-17T09:47:36.562Z,81.40
2019-05-17T09:50:09.674Z,81.30
2019-05-17T09:52:40.763Z,81.60
2019-05-17T09:55:11.962Z,78.80
2019-05-17T09:57:42.412Z,77.20
2019-05-17T10:00:13.788Z,78.50
2019-05-17T10:02:44.343Z,78.50
2019-05-17T10:05:14.848Z,79.60
2019-05-17T10:07:45.374Z,81.00
2019-05-17T10:10:15.927Z,82.80
2019-05-17T10:12:46.483Z,85.50
2019-05-17T10:15:17.031Z,86.80
2019-05-17T10:17:47.948Z,87.90
2019-05-17T10:20:19.982Z,89.70
2019-05-17T10:22:50.778Z,90.90
2019-05-17T10:25:21.286Z,91.70
2019-05-17T10:27:51.865Z,92.30
2019-05-17T10:30:22.445Z,93.00
2019-05-17T10:32:52.984Z,92.30
2019-05-17T10:35:23.474Z,92.50
2019-05-17T10:37:53.971Z,93.40
2019-05-17T10:40:24.670Z,92.80
2019-05-17T10:42:55.143Z,93.50
2019-05-17T10:45:25.698Z,93.70
2019-05-17T10:47:56.263Z,93.30
2019-05-17T10:50:26.762Z,93.20
2019-05-17T10:52:57.342Z,93.30
2019-05-17T10:55:30.092Z,94.30
2019-05-17T10:58:00.432Z,94.60
2019-05-17T11:00:31.330Z,95.40
2019-05-17T11:03:02.147Z,95.30
2019-05-17T11:05:32.669Z,95.60
2019-05-17T11:08:03.217Z,95.80
2019-05-17T11:10:33.728Z,95.80
2019-05-17T11:13:04.686Z,95.70
2019-05-17T11:15:35.172Z,95.50
2019-05-17T11:18:05.755Z,94.70
2019-05-17T11:20:36.334Z,94.80
2019-05-17T11:23:06.865Z,94.90
2019-05-17T11:25:37.453Z,94.50
2019-05-17T11:28:07.976Z,94.20
2019-05-17T11:30:38.465Z,94.00
2019-05-17T11:33:08.935Z,93.70
2019-05-17T11:35:39.485Z,92.90
2019-05-17T11:38:10.037Z,93.10
2019-05-17T11:40:40.520Z,93.70
2019-05-17T11:43:11.036Z,93.60
2019-05-17T11:45:41.553Z,94.30
2019-05-17T11:48:12.100Z,94.30
2019-05-17T11:50:42.608Z,94.60
2019-05-17T11:53:13.102Z,95.20
2019-05-17T11:55:43.612Z,95.20
2019-05-17T11:58:14.127Z,95.20
2019-05-17T12:00:44.715Z,95.60
2019-05-17T12:03:16.064Z,96.20
2019-05-17T12:05:46.558Z,96.40
2019-05-17T12:08:17.042Z,96.70
2019-05-17T12:10:47.695Z,96.70
2019-05-17T12:13:19.618Z,96.80
2019-05-17T12:15:50.087Z,97.50
2019-05-17T12:18:20.665Z,97.40
2019-05-17T12:20:51.237Z,97.30
2019-05-17T12:23:21.738Z,97.40
2019-05-17T12:25:52.229Z,96.70
2019-05-17T12:28:22.765Z,97.20
2019-05-17T12:30:53.274Z,97.00
2019-05-17T12:33:23.929Z,96.80
2019-05-17T12:35:54.409Z,96.10
2019-05-17T12:38:25.071Z,95.90
2019-05-17T12:40:55.605Z,96.00
2019-05-17T12:43:26.087Z,95.50
2019-05-17T12:46:00.488Z,95.40
2019-05-17T12:48:29.259Z,95.50
2019-05-17T12:50:59.886Z,95.50
2019-05-17T12:53:31.184Z,95.80
2019-05-17T12:56:01.704Z,96.60
2019-05-17T12:58:32.284Z,95.90
2019-05-17T13:01:02.910Z,96.40
2019-05-17T13:03:33.382Z,96.30
2019-05-17T13:06:03.999Z,96.10
2019-05-17T13:08:34.576Z,95.80
2019-05-17T13:11:05.381Z,96.50
2019-05-17T13:13:35.993Z,96.20
2019-05-17T13:16:17.301Z,96.00
2019-05-17T13:18:38.613Z,95.80
2019-05-17T13:21:09.351Z,96.30
2019-05-17T13:23:39.929Z,96.50
2019-05-17T13:26:10.428Z,96.50
2019-05-17T13:28:40.994Z,96.70
2019-05-17T13:31:12.582Z,96.60
2019-05-17T13:33:43.035Z,95.70
2019-05-17T13:36:13.516Z,95.90
2019-05-17T13:38:44.140Z,95.50
2019-05-17T13:41:14.761Z,95.90
2019-05-17T13:43:45.317Z,96.30
2019-05-17T13:46:15.817Z,95.50
2019-05-17T13:48:46.350Z,96.30
2019-05-17T13:51:16.883Z,95.60
2019-05-17T13:53:48.555Z,96.10
2019-05-17T13:56:19.156Z,95.80
2019-05-17T13:58:49.699Z,95.50
2019-05-17T14:01:20.191Z,95.30
2019-05-17T14:03:50.762Z,95.40
2019-05-17T14:06:22.156Z,94.80
2019-05-17T14:08:52.802Z,94.90
2019-05-17T14:11:23.313Z,94.60
2019-05-17T14:13:53.873Z,94.50
2019-05-17T14:16:24.566Z,94.20
2019-05-17T14:18:55.023Z,94.40
2019-05-17T14:21:25.563Z,94.20
2019-05-17T14:23:57.212Z,93.80
2019-05-17T14:31:27.330Z,93.80
2019-05-17T14:33:57.905Z,94.20
2019-05-17T14:36:28.420Z,94.60
2019-05-17T14:39:00.174Z,93.80
2019-05-17T14:41:32.422Z,94.20
2019-05-17T14:44:02.916Z,94.90
2019-05-17T14:46:33.383Z,94.50
2019-05-17T14:49:03.893Z,93.90
2019-05-17T14:51:34.434Z,94.00
2019-05-17T14:54:05.406Z,94.50
2019-05-17T14:59:05.758Z,93.90
2019-05-17T15:01:36.302Z,93.50
2019-05-17T15:04:06.868Z,92.60
2019-05-17T15:06:37.366Z,92.90
2019-05-17T15:09:11.335Z,92.40
2019-05-17T15:11:40.391Z,92.70
2019-05-17T15:14:11.042Z,91.90
2019-05-17T15:16:41.560Z,90.80
2019-05-17T15:19:12.017Z,85.30
2019-05-17T15:21:42.694Z,84.80
2019-05-17T15:24:13.143Z,86.00
2019-05-17T15:26:43.640Z,87.90
2019-05-17T15:29:14.139Z,86.70
2019-05-17T15:31:44.666Z,87.40
2019-05-17T15:34:15.158Z,84.80
2019-05-17T15:36:45.731Z,84.70
2019-05-17T15:39:16.364Z,85.80
2019-05-17T15:41:46.944Z,84.00
2019-05-17T15:44:17.478Z,84.70
2019-05-17T15:46:48.400Z,85.60
2019-05-17T15:49:18.923Z,84.60
2019-05-17T15:51:49.452Z,82.30
2019-05-17T15:54:19.963Z,81.00
2019-05-17T15:56:50.507Z,81.80
2019-05-17T15:59:20.943Z,81.70
2019-05-17T16:01:51.431Z,81.60
2019-05-17T16:04:21.974Z,81.90
2019-05-17T16:06:52.826Z,80.00
2019-05-17T16:09:23.473Z,81.00
2019-05-17T16:11:54.029Z,82.00
2019-05-17T16:14:24.536Z,82.60
2019-05-17T16:16:56.018Z,82.50
2019-05-17T16:19:26.637Z,80.20
2019-05-17T16:21:57.222Z,79.20
2019-05-17T16:24:27.728Z,76.70
2019-05-17T16:26:58.233Z,77.00
2019-05-17T16:29:28.810Z,76.60
2019-05-17T16:31:59.226Z,74.70
2019-05-17T16:34:29.716Z,75.70
2019-05-17T16:37:00.167Z,75.70
2019-05-17T16:39:30.730Z,75.20
2019-05-17T16:42:01.372Z,73.30
2019-05-17T16:44:31.904Z,74.80
2019-05-17T16:47:03.653Z,76.30
2019-05-17T16:49:34.100Z,75.90
2019-05-17T16:52:04.833Z,74.80
2019-05-17T16:54:35.320Z,75.30
2019-05-17T16:57:05.878Z,76.10
2019-05-17T16:59:36.428Z,75.30
2019-05-17T17:02:06.950Z,74.90
2019-05-17T17:04:37.396Z,74.80
2019-05-17T17:07:07.988Z,72.40
2019-05-17T17:09:38.639Z,71.20
2019-05-17T17:12:09.117Z,71.90
2019-05-17T17:14:39.700Z,73.20
2019-05-17T17:17:12.557Z,72.90
2019-05-17T17:19:42.348Z,72.40
2019-05-17T17:22:12.969Z,72.60
2019-05-17T17:24:43.506Z,72.70
2019-05-17T17:27:14.078Z,71.60
2019-05-17T17:29:44.540Z,71.80
2019-05-17T17:32:21.459Z,71.70
2019-05-17T17:34:47.185Z,70.00
2019-05-17T17:37:17.757Z,70.30
2019-05-17T17:39:48.243Z,70.00
2019-05-17T17:42:18.734Z,70.10
2019-05-17T17:44:49.309Z,71.50
2019-05-17T17:47:19.774Z,72.70
2019-05-17T17:49:50.278Z,72.30
2019-05-17T17:52:20.854Z,72.70
2019-05-17T17:54:51.566Z,72.10
2019-05-17T17:57:22.096Z,73.00
2019-05-17T17:59:55.527Z,73.00
2019-05-17T18:02:25.003Z,73.20
2019-05-17T18:04:55.523Z,73.50
2019-05-17T18:07:26.113Z,71.70
2019-05-17T18:09:56.792Z,72.10
2019-05-17T18:12:27.256Z,73.00
2019-05-17T18:14:58.793Z,73.30
2019-05-17T18:17:29.370Z,73.30
2019-05-17T18:19:59.902Z,73.70
2019-05-17T18:22:30.672Z,73.40
2019-05-17T18:25:01.429Z,74.00
2019-05-17T18:27:32.087Z,73.70
2019-05-17T18:30:02.612Z,73.20
2019-05-17T18:32:34.542Z,73.30
2019-05-17T18:35:05.244Z,74.30
2019-05-17T18:37:36.826Z,75.70
2019-05-17T18:40:07.677Z,76.20
2019-05-17T18:42:38.182Z,75.80
2019-05-17T18:45:09.052Z,75.00
2019-05-17T18:47:39.655Z,74.50
2019-05-17T18:50:10.640Z,75.20
2019-05-17T18:52:41.307Z,76.90
2019-05-17T18:55:12.120Z,78.20
2019-05-17T18:57:42.781Z,78.50
2019-05-17T19:00:26.176Z,79.20
2019-05-17T19:02:56.793Z,79.70
2019-05-17T19:05:27.284Z,80.10
2019-05-17T19:07:57.880Z,80.00
2019-05-17T19:10:28.401Z,80.60
2019-05-17T19:12:59.001Z,81.10
2019-05-17T19:15:29.614Z,81.40
2019-05-17T19:18:00.115Z,82.50
2019-05-17T19:20:30.748Z,82.40
2019-05-17T19:23:01.557Z,83.80
2019-05-17T19:25:32.019Z,85.40
2019-05-17T19:28:02.556Z,86.20
2019-05-17T19:30:33.088Z,86.50
2019-05-17T19:33:03.711Z,86.70
2019-05-17T19:35:34.301Z,86.00
2019-05-17T19:38:04.927Z,86.00
2019-05-17T19:40:35.497Z,85.40
2019-05-17T19:43:06.271Z,85.80
2019-05-17T19:45:36.877Z,86.20
2019-05-17T19:48:07.512Z,86.90
2019-05-17T19:50:38.035Z,88.80
2019-05-17T19:53:08.608Z,89.80
2019-05-17T19:55:39.078Z,89.90
2019-05-17T19:58:09.704Z,90.00
2019-05-17T20:00:40.177Z,90.00
2019-05-17T20:03:11.030Z,90.00
2019-05-17T20:05:41.628Z,90.10
2019-05-17T20:08:12.258Z,90.10
2019-05-17T20:10:43.109Z,90.20
2019-05-17T20:13:14.037Z,90.30
2019-05-17T20:15:44.803Z,90.60
2019-05-17T20:18:15.377Z,90.80
2019-05-17T20:20:45.927Z,91.00
2019-05-17T20:23:16.471Z,91.00
2019-05-17T20:25:46.921Z,91.40
2019-05-17T20:28:17.519Z,91.70
2019-05-17T20:30:48.027Z,91.70
2019-05-17T20:33:18.584Z,92.00
2019-05-17T20:35:49.161Z,92.00
2019-05-17T20:38:19.724Z,92.00
2019-05-17T20:40:50.295Z,92.20
2019-05-17T20:43:20.808Z,92.20
2019-05-17T20:45:51.283Z,92.30
2019-05-17T20:48:21.769Z,92.80
2019-05-17T20:50:52.287Z,92.60
2019-05-17T20:53:22.893Z,92.60
2019-05-17T20:55:53.375Z,92.80
2019-05-17T20:58:23.950Z,92.70
2019-05-17T21:00:54.628Z,92.90
2019-05-17T21:03:25.459Z,92.90
2019-05-17T21:05:57.060Z,93.00
2019-05-17T21:08:27.726Z,93.00
2019-05-17T21:10:58.261Z,93.00
2019-05-17T21:13:28.990Z,92.90
2019-05-17T21:15:59.465Z,93.00
2019-05-17T21:18:29.964Z,92.80
2019-05-17T21:21:00.416Z,92.80
2019-05-17T21:23:30.919Z,92.90
2019-05-17T21:26:01.412Z,93.10
2019-05-17T21:28:31.921Z,93.20
2019-05-17T21:31:02.714Z,93.20
2019-05-17T21:33:33.222Z,93.20
2019-05-17T21:36:03.756Z,93.40
2019-05-17T21:38:34.360Z,93.30
2019-05-17T21:41:04.838Z,93.40
2019-05-17T21:43:35.347Z,93.50
2019-05-17T21:46:05.855Z,93.60
2019-05-17T21:48:36.323Z,93.60
2019-05-17T21:51:06.819Z,93.60
2019-05-17T21:53:37.352Z,93.60
2019-05-17T21:56:07.915Z,93.70
2019-05-17T21:58:38.416Z,93.60
2019-05-17T22:01:16.345Z,93.60
2019-05-17T22:03:47.005Z,93.50
2019-05-17T22:06:17.612Z,93.60
2019-05-17T22:08:48.066Z,93.60
2019-05-17T22:11:18.613Z,93.70
2019-05-17T22:13:49.183Z,93.90
2019-05-17T22:16:20.382Z,93.90
2019-05-17T22:18:51.028Z,93.90
2019-05-17T22:21:21.527Z,94.00
2019-05-17T22:23:52.034Z,94.00
2019-05-17T22:26:22.543Z,93.80
2019-05-17T22:28:53.010Z,93.90
2019-05-17T22:31:23.556Z,94.00
2019-05-17T22:33:54.217Z,94.10
2019-05-17T22:36:24.794Z,94.10
2019-05-17T22:38:55.365Z,94.20
2019-05-17T22:41:25.876Z,94.20
2019-05-17T22:43:56.584Z,94.20
2019-05-17T22:46:35.515Z,94.20
2019-05-17T22:48:59.416Z,94.50
2019-05-17T22:51:30.041Z,94.20
2019-05-17T22:54:00.502Z,94.50
2019-05-17T22:56:31.064Z,94.10
2019-05-17T22:59:01.642Z,94.10
2019-05-17T23:01:32.242Z,94.00
2019-05-17T23:04:02.733Z,94.10
2019-05-17T23:06:33.255Z,94.00
2019-05-17T23:09:04.662Z,93.90
2019-05-17T23:11:35.220Z,93.80
2019-05-17T23:14:05.724Z,93.80
2019-05-17T23:16:50.496Z,93.80
2019-05-17T23:19:09.090Z,93.80
2019-05-17T23:21:40.083Z,93.90
2019-05-17T23:24:10.585Z,94.10
2019-05-17T23:26:41.150Z,94.10
2019-05-17T23:29:11.644Z,94.10
2019-05-17T23:31:42.130Z,94.00
2019-05-17T23:34:12.622Z,94.00
2019-05-17T23:36:43.494Z,94.00
2019-05-17T23:39:14.256Z,94.10
2019-05-17T23:41:44.826Z,94.00
2019-05-17T23:44:15.398Z,94.10
2019-05-17T23:46:46.295Z,94.10
2019-05-17T23:49:16.875Z,93.80
2019-05-17T23:51:47.464Z,93.80
2019-05-17T23:54:18.020Z,93.80
2019-05-17T23:56:48.495Z,93.60
2019-05-17T23:59:18.999Z,93.70
